createdAt,value
2019-02-07T00:00:42.790Z,90.72
2019-02-07T00:01:42.783Z,90.67
2019-02-07T00:02:42.777Z,90.76
2019-02-07T00:03:42.761Z,90.76
2019-02-07T00:04:42.751Z,91.14
2019-02-07T00:05:42.743Z,91.14
2019-02-07T00:06:42.730Z,91.14
2019-02-07T00:07:42.725Z,90.67
2019-02-07T00:08:42.712Z,90.19
2019-02-07T00:09:42.703Z,89.81
2019-02-07T00:10:42.698Z,89.91
2019-02-07T00:11:42.687Z,90.38
2019-02-07T00:12:42.674Z,90.48
2019-02-07T00:13:42.675Z,90.00
2019-02-07T00:14:42.659Z,90.24
2019-02-07T00:15:42.654Z,89.72
2019-02-07T00:16:42.632Z,90.29
2019-02-07T00:17:42.634Z,89.91
2019-02-07T00:18:42.623Z,90.19
2019-02-07T00:19:42.613Z,89.62
2019-02-07T00:20:42.608Z,89.34
2019-02-07T00:21:42.586Z,89.72
2019-02-07T00:22:42.590Z,89.34
2019-02-07T00:23:42.579Z,90.19
2019-02-07T00:24:43.301Z,89.53
2019-02-07T00:25:42.559Z,89.53
2019-02-07T00:26:42.551Z,89.91
2019-02-07T00:27:42.539Z,89.91
2019-02-07T00:28:42.535Z,89.34
2019-02-07T00:29:42.520Z,89.53
2019-02-07T00:30:42.515Z,89.72
2019-02-07T00:31:42.505Z,89.91
2019-02-07T00:32:42.492Z,89.72
2019-02-07T00:33:42.490Z,89.34
2019-02-07T00:34:42.471Z,89.15
2019-02-07T00:35:42.477Z,89.25
2019-02-07T00:36:42.457Z,89.53
2019-02-07T00:37:42.447Z,89.25
2019-02-07T00:38:42.530Z,89.06
2019-02-07T00:39:42.430Z,88.58
2019-02-07T00:40:42.424Z,88.68
2019-02-07T00:41:42.405Z,88.48
2019-02-07T00:42:42.400Z,88.68
2019-02-07T00:43:42.399Z,89.06
2019-02-07T00:44:50.440Z,88.77
2019-02-07T00:45:42.375Z,88.01
2019-02-07T00:46:42.362Z,88.48
2019-02-07T00:47:42.356Z,88.29
2019-02-07T00:48:42.347Z,88.01
2019-02-07T00:49:42.341Z,88.29
2019-02-07T00:50:42.332Z,88.10
2019-02-07T00:51:42.316Z,88.29
2019-02-07T00:52:42.309Z,88.10
2019-02-07T00:53:42.301Z,87.92
2019-02-07T00:54:42.288Z,87.68
2019-02-07T00:55:42.284Z,87.30
2019-02-07T00:56:42.271Z,87.21
2019-02-07T00:57:42.266Z,86.93
2019-02-07T00:58:42.254Z,87.49
2019-02-07T00:59:42.246Z,87.87
2019-02-07T01:00:42.236Z,87.40
2019-02-07T01:01:42.227Z,88.16
2019-02-07T01:02:42.215Z,87.21
2019-02-07T01:03:42.209Z,87.59
2019-02-07T01:04:42.208Z,87.87
2019-02-07T01:05:42.194Z,87.40
2019-02-07T01:06:42.180Z,87.68
2019-02-07T01:07:42.173Z,88.06
2019-02-07T01:08:42.160Z,88.25
2019-02-07T01:09:42.156Z,88.35
2019-02-07T01:10:42.144Z,88.35
2019-02-07T01:11:42.134Z,88.54
2019-02-07T01:12:42.129Z,87.68
2019-02-07T01:13:42.117Z,87.77
2019-02-07T01:14:42.107Z,87.97
2019-02-07T01:15:42.097Z,87.30
2019-02-07T01:16:42.087Z,87.30
2019-02-07T01:17:42.077Z,87.30
2019-02-07T01:18:42.074Z,87.12
2019-02-07T01:19:42.059Z,87.30
2019-02-07T01:20:42.048Z,87.21
2019-02-07T01:21:42.136Z,87.12
2019-02-07T01:22:42.030Z,87.02
2019-02-07T01:23:42.022Z,87.02
2019-02-07T01:24:42.011Z,87.02
2019-02-07T01:25:42.002Z,86.64
2019-02-07T01:26:41.995Z,86.83
2019-02-07T01:27:41.983Z,87.12
2019-02-07T01:28:41.976Z,87.02
2019-02-07T01:29:41.966Z,86.64
2019-02-07T01:30:41.956Z,86.26
2019-02-07T01:31:41.946Z,86.64
2019-02-07T01:32:41.935Z,86.45
2019-02-07T01:33:41.930Z,86.26
2019-02-07T01:34:41.919Z,86.45
2019-02-07T01:35:41.911Z,86.35
2019-02-07T01:36:41.899Z,86.55
2019-02-07T01:37:41.894Z,86.64
2019-02-07T01:38:41.880Z,86.64
2019-02-07T01:39:41.877Z,86.26
2019-02-07T01:40:41.862Z,86.83
2019-02-07T01:41:41.856Z,86.83
2019-02-07T01:42:41.844Z,86.83
2019-02-07T01:43:41.834Z,86.16
2019-02-07T01:44:41.822Z,86.26
2019-02-07T01:45:41.814Z,86.26
2019-02-07T01:46:41.807Z,86.35
2019-02-07T01:47:41.797Z,86.31
2019-02-07T01:48:41.786Z,86.79
2019-02-07T01:49:41.781Z,87.07
2019-02-07T01:50:41.768Z,86.88
2019-02-07T01:51:41.760Z,87.64
2019-02-07T01:52:41.751Z,87.45
2019-02-07T01:53:41.742Z,86.69
2019-02-07T01:54:41.729Z,86.98
2019-02-07T01:55:41.720Z,87.83
2019-02-07T01:56:41.712Z,87.45
2019-02-07T01:57:41.703Z,87.26
2019-02-07T01:58:41.692Z,87.16
2019-02-07T01:59:41.684Z,87.16
2019-02-07T02:00:41.677Z,87.26
2019-02-07T02:01:41.662Z,87.35
2019-02-07T02:02:41.653Z,87.07
2019-02-07T02:03:41.646Z,87.64
2019-02-07T02:04:41.642Z,87.35
2019-02-07T02:05:41.625Z,87.54
2019-02-07T02:06:41.616Z,87.16
2019-02-07T02:07:41.605Z,88.02
2019-02-07T02:08:41.597Z,87.83
2019-02-07T02:09:41.585Z,87.92
2019-02-07T02:10:41.577Z,87.83
2019-02-07T02:11:41.565Z,87.73
2019-02-07T02:12:41.557Z,88.02
2019-02-07T02:13:41.545Z,87.64
2019-02-07T02:14:41.541Z,87.92
2019-02-07T02:15:41.526Z,87.83
2019-02-07T02:16:41.520Z,87.64
2019-02-07T02:17:41.508Z,87.64
2019-02-07T02:18:41.497Z,87.54
2019-02-07T02:19:41.489Z,87.92
2019-02-07T02:20:41.480Z,88.02
2019-02-07T02:21:41.468Z,87.35
2019-02-07T02:22:41.459Z,87.54
2019-02-07T02:23:41.453Z,87.45
2019-02-07T02:24:41.441Z,87.92
2019-02-07T02:25:41.430Z,87.73
2019-02-07T02:26:41.512Z,87.45
2019-02-07T02:27:41.412Z,88.11
2019-02-07T02:28:41.400Z,88.02
2019-02-07T02:29:41.390Z,87.83
2019-02-07T02:30:41.380Z,88.02
2019-02-07T02:31:41.369Z,88.40
2019-02-07T02:32:41.359Z,88.40
2019-02-07T02:33:41.349Z,87.83
2019-02-07T02:34:41.340Z,87.83
2019-02-07T02:35:41.330Z,88.02
2019-02-07T02:36:41.318Z,88.59
2019-02-07T02:37:41.313Z,88.40
2019-02-07T02:38:41.297Z,88.40
2019-02-07T02:39:41.293Z,88.49
2019-02-07T02:40:41.282Z,88.68
2019-02-07T02:41:41.273Z,88.30
2019-02-07T02:42:41.266Z,89.06
2019-02-07T02:43:41.253Z,88.68
2019-02-07T02:44:41.241Z,88.59
2019-02-07T02:45:41.232Z,89.06
2019-02-07T02:46:41.220Z,89.15
2019-02-07T02:47:41.209Z,88.78
2019-02-07T02:48:41.195Z,88.68
2019-02-07T02:49:41.190Z,88.49
2019-02-07T02:50:41.182Z,88.78
2019-02-07T02:51:41.177Z,88.87
2019-02-07T02:52:41.163Z,88.59
2019-02-07T02:53:41.155Z,88.64
2019-02-07T02:54:41.144Z,88.64
2019-02-07T02:55:41.135Z,88.64
2019-02-07T02:56:41.124Z,88.59
2019-02-07T02:57:41.114Z,88.73
2019-02-07T02:58:41.105Z,88.96
2019-02-07T02:59:41.094Z,88.40
2019-02-07T03:00:41.082Z,88.40
2019-02-07T03:01:41.075Z,88.96
2019-02-07T03:02:41.064Z,89.01
2019-02-07T03:03:41.053Z,88.92
2019-02-07T03:04:41.040Z,89.06
2019-02-07T03:05:41.033Z,89.01
2019-02-07T03:06:41.018Z,89.15
2019-02-07T03:07:41.014Z,88.64
2019-02-07T03:08:41.008Z,89.11
2019-02-07T03:09:40.996Z,88.82
2019-02-07T03:10:40.984Z,88.73
2019-02-07T03:11:40.980Z,88.54
2019-02-07T03:12:40.964Z,89.11
2019-02-07T03:13:40.953Z,89.20
2019-02-07T03:14:40.947Z,89.20
2019-02-07T03:15:49.259Z,89.30
2019-02-07T03:16:40.923Z,89.96
2019-02-07T03:17:40.916Z,90.06
2019-02-07T03:18:40.904Z,90.06
2019-02-07T03:19:40.894Z,89.58
2019-02-07T03:20:40.883Z,89.20
2019-02-07T03:21:40.872Z,88.64
2019-02-07T03:22:40.864Z,88.82
2019-02-07T03:23:40.853Z,88.82
2019-02-07T03:24:40.842Z,88.64
2019-02-07T03:25:40.836Z,88.73
2019-02-07T03:26:40.825Z,88.54
2019-02-07T03:27:40.815Z,89.11
2019-02-07T03:28:40.800Z,89.11
2019-02-07T03:29:40.795Z,89.11
2019-02-07T03:30:40.789Z,89.30
2019-02-07T03:31:40.771Z,89.39
2019-02-07T03:32:40.769Z,89.11
2019-02-07T03:33:40.757Z,88.54
2019-02-07T03:34:40.735Z,88.92
2019-02-07T03:35:40.734Z,89.11
2019-02-07T03:36:40.730Z,89.20
2019-02-07T03:37:40.716Z,89.30
2019-02-07T03:38:40.693Z,88.82
2019-02-07T03:39:40.695Z,88.45
2019-02-07T03:40:40.678Z,88.54
2019-02-07T03:41:40.675Z,89.30
2019-02-07T03:42:40.661Z,89.20
2019-02-07T03:43:40.653Z,89.11
2019-02-07T03:44:40.640Z,89.30
2019-02-07T03:45:40.635Z,89.39
2019-02-07T03:46:40.613Z,89.20
2019-02-07T03:47:40.610Z,89.30
2019-02-07T03:48:40.605Z,89.11
2019-02-07T03:49:40.592Z,89.49
2019-02-07T03:50:40.586Z,88.35
2019-02-07T03:51:40.570Z,89.11
2019-02-07T03:52:40.665Z,88.92
2019-02-07T03:53:40.554Z,88.35
2019-02-07T03:54:40.534Z,88.35
2019-02-07T03:55:40.536Z,89.01
2019-02-07T03:56:40.519Z,88.92
2019-02-07T03:57:40.509Z,88.64
2019-02-07T03:58:40.498Z,89.01
2019-02-07T03:59:40.488Z,89.01
2019-02-07T04:00:40.477Z,88.82
2019-02-07T04:01:40.464Z,88.64
2019-02-07T04:02:40.814Z,89.11
2019-02-07T04:03:40.446Z,88.92
2019-02-07T04:04:40.434Z,88.26
2019-02-07T04:05:40.424Z,89.01
2019-02-07T04:06:40.414Z,89.01
2019-02-07T04:07:40.408Z,88.82
2019-02-07T04:08:40.394Z,89.11
2019-02-07T04:09:40.385Z,88.92
2019-02-07T04:10:43.082Z,88.54
2019-02-07T04:11:40.361Z,89.01
2019-02-07T04:12:40.354Z,88.64
2019-02-07T04:13:40.345Z,88.54
2019-02-07T04:14:40.332Z,89.20
2019-02-07T04:15:40.324Z,88.97
2019-02-07T04:16:40.313Z,89.06
2019-02-07T04:17:40.300Z,89.44
2019-02-07T04:18:40.296Z,88.97
2019-02-07T04:19:40.281Z,88.97
2019-02-07T04:20:40.271Z,89.63
2019-02-07T04:21:40.259Z,89.54
2019-02-07T04:22:40.250Z,89.73
2019-02-07T04:23:40.239Z,90.20
2019-02-07T04:24:40.229Z,89.63
2019-02-07T04:25:40.217Z,90.01
2019-02-07T04:26:40.218Z,89.54
2019-02-07T04:27:40.189Z,90.11
2019-02-07T04:28:40.186Z,89.92
2019-02-07T04:29:40.180Z,90.30
2019-02-07T04:30:40.166Z,90.30
2019-02-07T04:31:40.160Z,89.63
2019-02-07T04:32:40.145Z,89.82
2019-02-07T04:33:40.138Z,89.82
2019-02-07T04:34:40.127Z,89.54
2019-02-07T04:35:40.119Z,90.01
2019-02-07T04:36:40.102Z,89.63
2019-02-07T04:37:40.091Z,89.73
2019-02-07T04:38:40.081Z,89.92
2019-02-07T04:39:40.078Z,90.11
2019-02-07T04:40:40.059Z,89.92
2019-02-07T04:41:40.049Z,89.63
2019-02-07T04:42:40.067Z,89.73
2019-02-07T04:43:40.031Z,89.63
2019-02-07T04:44:40.021Z,89.54
2019-02-07T04:45:40.005Z,89.54
2019-02-07T04:46:39.998Z,90.39
2019-02-07T04:47:39.991Z,90.20
2019-02-07T04:48:39.984Z,90.20
2019-02-07T04:49:39.970Z,90.48
2019-02-07T04:50:39.971Z,90.58
2019-02-07T04:51:39.946Z,90.30
2019-02-07T04:52:39.934Z,90.67
2019-02-07T04:53:39.926Z,90.67
2019-02-07T04:54:39.913Z,90.86
2019-02-07T04:55:39.904Z,90.58
2019-02-07T04:56:39.893Z,90.67
2019-02-07T04:57:39.882Z,90.77
2019-02-07T04:58:39.869Z,90.77
2019-02-07T04:59:39.863Z,90.48
2019-02-07T05:00:39.852Z,90.67
2019-02-07T05:01:39.838Z,90.39
2019-02-07T05:02:39.830Z,90.30
2019-02-07T05:03:39.819Z,90.20
2019-02-07T05:04:39.810Z,90.11
2019-02-07T05:05:39.801Z,90.30
2019-02-07T05:06:39.787Z,90.86
2019-02-07T05:07:39.774Z,90.86
2019-02-07T05:08:39.764Z,90.58
2019-02-07T05:09:39.753Z,90.30
2019-02-07T05:10:39.745Z,90.30
2019-02-07T05:11:39.743Z,90.86
2019-02-07T05:12:39.722Z,90.48
2019-02-07T05:13:39.709Z,90.67
2019-02-07T05:14:39.698Z,91.24
2019-02-07T05:15:39.688Z,90.39
2019-02-07T05:16:43.567Z,90.96
2019-02-07T05:17:39.667Z,90.96
2019-02-07T05:18:39.659Z,90.77
2019-02-07T05:19:39.643Z,90.58
2019-02-07T05:20:39.638Z,90.96
2019-02-07T05:21:39.626Z,91.24
2019-02-07T05:22:39.613Z,90.86
2019-02-07T05:23:39.607Z,90.67
2019-02-07T05:24:39.591Z,90.67
2019-02-07T05:25:39.582Z,90.67
2019-02-07T05:26:39.574Z,90.58
2019-02-07T05:27:39.566Z,90.96
2019-02-07T05:28:39.548Z,90.77
2019-02-07T05:29:39.546Z,90.58
2019-02-07T05:30:39.524Z,90.30
2019-02-07T05:31:39.521Z,90.48
2019-02-07T05:32:39.505Z,90.39
2019-02-07T05:33:39.495Z,89.92
2019-02-07T05:34:39.487Z,90.39
2019-02-07T05:35:39.483Z,90.20
2019-02-07T05:36:42.190Z,90.01
2019-02-07T05:37:39.454Z,90.01
2019-02-07T05:38:39.440Z,90.20
2019-02-07T05:39:39.435Z,89.82
2019-02-07T05:40:39.419Z,90.01
2019-02-07T05:41:39.409Z,89.54
2019-02-07T05:42:39.398Z,89.73
2019-02-07T05:43:39.391Z,89.44
2019-02-07T05:44:39.374Z,89.54
2019-02-07T05:45:39.368Z,89.44
2019-02-07T05:46:50.492Z,89.92
2019-02-07T05:47:39.344Z,89.73
2019-02-07T05:48:39.336Z,89.73
2019-02-07T05:49:39.344Z,88.87
2019-02-07T05:50:39.310Z,89.73
2019-02-07T05:51:39.306Z,89.73
2019-02-07T05:52:39.289Z,89.44
2019-02-07T05:53:39.275Z,89.63
2019-02-07T05:54:39.294Z,89.92
2019-02-07T05:55:39.259Z,89.73
2019-02-07T05:56:39.250Z,89.82
2019-02-07T05:57:39.236Z,89.73
2019-02-07T05:58:39.225Z,90.20
2019-02-07T05:59:39.209Z,90.39
2019-02-07T06:00:39.202Z,89.73
2019-02-07T06:01:39.192Z,89.73
2019-02-07T06:02:39.182Z,90.20
2019-02-07T06:03:39.171Z,89.92
2019-02-07T06:04:39.156Z,90.11
2019-02-07T06:05:39.153Z,90.39
2019-02-07T06:06:39.140Z,89.92
2019-02-07T06:07:39.129Z,89.92
2019-02-07T06:08:39.118Z,90.20
2019-02-07T06:09:39.101Z,89.54
2019-02-07T06:10:39.102Z,89.73
2019-02-07T06:11:39.080Z,89.06
2019-02-07T06:12:39.072Z,89.06
2019-02-07T06:13:39.062Z,89.54
2019-02-07T06:14:39.054Z,89.82
2019-02-07T06:15:39.040Z,89.92
2019-02-07T06:16:39.028Z,90.01
2019-02-07T06:17:39.019Z,90.20
2019-02-07T06:18:39.002Z,89.82
2019-02-07T06:19:38.996Z,89.63
2019-02-07T06:20:38.987Z,88.97
2019-02-07T06:21:38.974Z,89.73
2019-02-07T06:22:38.968Z,90.01
2019-02-07T06:23:38.957Z,90.11
2019-02-07T06:24:38.939Z,89.82
2019-02-07T06:25:38.926Z,89.54
2019-02-07T06:26:38.918Z,89.82
2019-02-07T06:27:38.987Z,88.97
2019-02-07T06:28:38.896Z,89.25
2019-02-07T06:29:38.883Z,89.35
2019-02-07T06:30:38.881Z,89.35
2019-02-07T06:31:38.874Z,88.87
2019-02-07T06:32:38.853Z,88.87
2019-02-07T06:33:38.844Z,89.25
2019-02-07T06:34:38.840Z,89.35
2019-02-07T06:35:38.823Z,89.25
2019-02-07T06:36:38.813Z,89.25
2019-02-07T06:37:38.803Z,89.16
2019-02-07T06:38:38.804Z,89.63
2019-02-07T06:39:38.789Z,89.25
2019-02-07T06:40:38.763Z,89.06
2019-02-07T06:41:38.758Z,89.44
2019-02-07T06:42:38.747Z,88.78
2019-02-07T06:43:38.745Z,88.97
2019-02-07T06:44:38.723Z,88.59
2019-02-07T06:45:38.718Z,89.16
2019-02-07T06:46:38.699Z,88.68
2019-02-07T06:47:38.691Z,89.06
2019-02-07T06:48:38.673Z,88.78
2019-02-07T06:49:38.670Z,88.49
2019-02-07T06:50:38.657Z,88.49
2019-02-07T06:51:38.645Z,89.06
2019-02-07T06:52:38.637Z,89.06
2019-02-07T06:53:38.622Z,89.16
2019-02-07T06:54:38.705Z,89.06
2019-02-07T06:55:38.596Z,88.68
2019-02-07T06:56:38.592Z,88.68
2019-02-07T06:57:38.577Z,88.87
2019-02-07T06:58:38.568Z,88.21
2019-02-07T06:59:38.561Z,89.06
2019-02-07T07:00:38.546Z,88.12
2019-02-07T07:01:38.538Z,88.87
2019-02-07T07:02:38.525Z,88.49
2019-02-07T07:03:38.514Z,87.84
2019-02-07T07:04:38.502Z,87.84
2019-02-07T07:05:38.491Z,87.93
2019-02-07T07:06:38.480Z,87.84
2019-02-07T07:07:38.480Z,87.36
2019-02-07T07:08:38.458Z,87.55
2019-02-07T07:09:38.445Z,87.08
2019-02-07T07:10:38.438Z,87.17
2019-02-07T07:11:38.426Z,87.08
2019-02-07T07:12:38.412Z,87.08
2019-02-07T07:13:38.402Z,87.08
2019-02-07T07:14:38.393Z,86.70
2019-02-07T07:15:40.269Z,86.60
2019-02-07T07:16:38.359Z,86.70
2019-02-07T07:17:38.354Z,86.60
2019-02-07T07:18:38.348Z,86.41
2019-02-07T07:19:38.341Z,86.22
2019-02-07T07:20:38.334Z,86.27
2019-02-07T07:21:38.321Z,86.89
2019-02-07T07:22:38.304Z,86.74
2019-02-07T07:23:38.298Z,86.36
2019-02-07T07:24:38.283Z,86.55
2019-02-07T07:25:38.271Z,86.46
2019-02-07T07:26:38.266Z,86.36
2019-02-07T07:27:38.287Z,86.46
2019-02-07T07:28:38.241Z,86.46
2019-02-07T07:29:38.228Z,86.08
2019-02-07T07:30:38.223Z,85.99
2019-02-07T07:31:38.206Z,86.74
2019-02-07T07:32:38.213Z,86.08
2019-02-07T07:33:38.184Z,85.89
2019-02-07T07:34:38.183Z,85.42
2019-02-07T07:35:38.165Z,85.70
2019-02-07T07:36:38.154Z,85.42
2019-02-07T07:37:39.139Z,85.70
2019-02-07T07:38:38.133Z,85.80
2019-02-07T07:39:38.122Z,85.70
2019-02-07T07:40:38.110Z,85.42
2019-02-07T07:41:38.096Z,86.08
2019-02-07T07:42:38.090Z,85.99
2019-02-07T07:43:38.080Z,86.08
2019-02-07T07:44:38.063Z,85.42
2019-02-07T07:45:38.053Z,85.51
2019-02-07T07:46:38.045Z,85.42
2019-02-07T07:47:38.037Z,85.04
2019-02-07T07:48:38.026Z,85.04
2019-02-07T07:49:38.019Z,85.32
2019-02-07T07:50:38.007Z,85.04
2019-02-07T07:51:37.997Z,85.32
2019-02-07T07:52:37.974Z,85.23
2019-02-07T07:53:37.973Z,84.75
2019-02-07T07:54:37.966Z,84.09
2019-02-07T07:55:37.952Z,84.28
2019-02-07T07:56:37.941Z,84.75
2019-02-07T07:57:37.929Z,84.75
2019-02-07T07:58:37.944Z,84.66
2019-02-07T07:59:37.909Z,84.85
2019-02-07T08:00:37.908Z,84.47
2019-02-07T08:01:37.887Z,85.23
2019-02-07T08:02:37.880Z,85.23
2019-02-07T08:03:37.864Z,84.85
2019-02-07T08:04:37.860Z,85.04
2019-02-07T08:05:37.847Z,85.13
2019-02-07T08:06:37.838Z,84.66
2019-02-07T08:07:37.824Z,84.38
2019-02-07T08:08:37.809Z,84.47
2019-02-07T08:09:37.802Z,84.75
2019-02-07T08:10:37.792Z,84.28
2019-02-07T08:11:37.778Z,84.85
2019-02-07T08:12:37.774Z,84.47
2019-02-07T08:13:37.765Z,84.19
2019-02-07T08:14:37.753Z,83.71
2019-02-07T08:15:37.743Z,83.81
2019-02-07T08:16:37.737Z,84.09
2019-02-07T08:17:47.163Z,83.90
2019-02-07T08:18:37.711Z,83.71
2019-02-07T08:19:37.701Z,83.90
2019-02-07T08:20:37.687Z,83.85
2019-02-07T08:21:37.687Z,83.56
2019-02-07T08:22:37.674Z,84.00
2019-02-07T08:23:37.658Z,84.09
2019-02-07T08:24:37.655Z,84.13
2019-02-07T08:25:37.632Z,83.94
2019-02-07T08:26:37.631Z,83.09
2019-02-07T08:27:37.615Z,83.09
2019-02-07T08:28:37.604Z,83.56
2019-02-07T08:29:37.588Z,83.85
2019-02-07T08:30:37.587Z,83.66
2019-02-07T08:31:37.572Z,83.56
2019-02-07T08:32:37.565Z,83.47
2019-02-07T08:33:39.306Z,83.47
2019-02-07T08:34:37.547Z,83.18
2019-02-07T08:35:37.538Z,83.28
2019-02-07T08:36:37.529Z,83.28
2019-02-07T08:37:37.513Z,83.09
2019-02-07T08:38:37.515Z,83.75
2019-02-07T08:39:37.491Z,82.71
2019-02-07T08:40:37.482Z,82.81
2019-02-07T08:41:37.468Z,82.33
2019-02-07T08:42:37.465Z,82.81
2019-02-07T08:43:37.452Z,82.62
2019-02-07T08:44:37.441Z,82.71
2019-02-07T08:45:37.436Z,81.57
2019-02-07T08:46:37.417Z,82.05
2019-02-07T08:47:37.411Z,81.95
2019-02-07T08:48:37.399Z,81.57
2019-02-07T08:49:37.394Z,82.24
2019-02-07T08:50:37.379Z,81.57
2019-02-07T08:51:37.374Z,81.57
2019-02-07T08:52:37.362Z,81.76
2019-02-07T08:53:37.350Z,81.48
2019-02-07T08:54:37.341Z,81.10
2019-02-07T08:55:37.335Z,81.38
2019-02-07T08:56:37.318Z,81.57
2019-02-07T08:57:37.310Z,80.72
2019-02-07T08:58:37.302Z,81.57
2019-02-07T08:59:37.292Z,81.20
2019-02-07T09:00:37.277Z,80.72
2019-02-07T09:01:37.474Z,80.72
2019-02-07T09:02:37.259Z,81.38
2019-02-07T09:03:37.250Z,81.01
2019-02-07T09:04:37.239Z,81.57
2019-02-07T09:05:37.227Z,81.29
2019-02-07T09:06:37.217Z,81.57
2019-02-07T09:07:37.210Z,81.29
2019-02-07T09:08:37.198Z,81.20
2019-02-07T09:09:37.183Z,81.67
2019-02-07T09:10:37.176Z,81.57
2019-02-07T09:11:37.166Z,81.01
2019-02-07T09:12:37.156Z,81.76
2019-02-07T09:13:37.143Z,81.29
2019-02-07T09:14:37.138Z,81.48
2019-02-07T09:15:37.129Z,82.05
2019-02-07T09:16:37.114Z,81.86
2019-02-07T09:17:37.102Z,81.86
2019-02-07T09:18:37.092Z,81.76
2019-02-07T09:19:37.086Z,81.29
2019-02-07T09:20:37.077Z,81.99
2019-02-07T09:21:37.072Z,81.33
2019-02-07T09:22:37.051Z,81.43
2019-02-07T09:23:37.045Z,81.52
2019-02-07T09:24:37.031Z,81.05
2019-02-07T09:25:37.835Z,81.24
2019-02-07T09:26:37.028Z,81.14
2019-02-07T09:27:37.004Z,81.14
2019-02-07T09:28:36.993Z,81.05
2019-02-07T09:29:36.983Z,80.67
2019-02-07T09:30:36.974Z,80.67
2019-02-07T09:31:36.963Z,79.91
2019-02-07T09:32:36.953Z,79.15
2019-02-07T09:33:36.946Z,78.87
2019-02-07T09:34:36.931Z,79.34
2019-02-07T09:35:36.926Z,79.34
2019-02-07T09:36:36.906Z,78.67
2019-02-07T09:37:36.905Z,78.53
2019-02-07T09:38:36.897Z,78.20
2019-02-07T09:39:36.895Z,78.58
2019-02-07T09:40:36.875Z,78.39
2019-02-07T09:41:36.865Z,78.49
2019-02-07T09:42:36.856Z,78.05
2019-02-07T09:43:36.849Z,77.96
2019-02-07T09:44:36.836Z,77.77
2019-02-07T09:45:36.827Z,77.01
2019-02-07T09:46:36.821Z,77.67
2019-02-07T09:47:36.810Z,77.48
2019-02-07T09:48:36.798Z,77.77
2019-02-07T09:49:36.793Z,77.29
2019-02-07T09:50:36.782Z,76.44
2019-02-07T09:51:36.772Z,76.15
2019-02-07T09:52:36.764Z,76.25
2019-02-07T09:53:36.756Z,76.34
2019-02-07T09:54:36.744Z,76.06
2019-02-07T09:55:36.735Z,75.59
2019-02-07T09:56:36.722Z,75.96
2019-02-07T09:57:36.716Z,76.06
2019-02-07T09:58:36.706Z,75.78
2019-02-07T09:59:36.697Z,75.78
2019-02-07T10:00:36.688Z,74.92
2019-02-07T10:01:36.676Z,75.96
2019-02-07T10:02:36.667Z,75.87
2019-02-07T10:03:36.659Z,75.53
2019-02-07T10:04:36.650Z,76.39
2019-02-07T10:05:36.642Z,75.62
2019-02-07T10:06:36.632Z,75.15
2019-02-07T10:07:36.622Z,75.59
2019-02-07T10:08:36.612Z,75.72
2019-02-07T10:09:36.602Z,76.39
2019-02-07T10:10:36.596Z,76.01
2019-02-07T10:11:36.585Z,75.05
2019-02-07T10:12:36.575Z,74.96
2019-02-07T10:13:36.566Z,74.96
2019-02-07T10:14:36.555Z,74.30
2019-02-07T10:15:36.551Z,74.39
2019-02-07T10:16:36.542Z,73.92
2019-02-07T10:17:36.537Z,74.01
2019-02-07T10:18:36.523Z,74.30
2019-02-07T10:19:36.514Z,74.87
2019-02-07T10:20:37.421Z,74.77
2019-02-07T10:21:36.495Z,74.39
2019-02-07T10:22:36.482Z,74.39
2019-02-07T10:23:36.475Z,74.68
2019-02-07T10:24:36.466Z,74.30
2019-02-07T10:25:36.467Z,73.82
2019-02-07T10:26:36.448Z,74.30
2019-02-07T10:27:36.440Z,73.25
2019-02-07T10:28:36.428Z,73.54
2019-02-07T10:29:36.419Z,73.35
2019-02-07T10:30:36.411Z,72.78
2019-02-07T10:31:36.403Z,72.68
2019-02-07T10:32:36.382Z,72.78
2019-02-07T10:33:36.380Z,73.25
2019-02-07T10:34:36.376Z,73.44
2019-02-07T10:35:36.366Z,73.63
2019-02-07T10:36:36.353Z,73.44
2019-02-07T10:37:36.347Z,73.63
2019-02-07T10:38:36.337Z,73.25
2019-02-07T10:39:36.329Z,73.25
2019-02-07T10:40:36.322Z,73.82
2019-02-07T10:41:36.313Z,73.54
2019-02-07T10:42:36.304Z,73.76
2019-02-07T10:43:36.291Z,72.78
2019-02-07T10:44:36.284Z,72.68
2019-02-07T10:45:36.279Z,72.78
2019-02-07T10:46:36.263Z,72.40
2019-02-07T10:47:36.256Z,72.02
2019-02-07T10:48:44.268Z,72.02
2019-02-07T10:49:36.237Z,72.02
2019-02-07T10:50:36.228Z,72.40
2019-02-07T10:51:36.220Z,72.40
2019-02-07T10:52:36.212Z,71.55
2019-02-07T10:53:36.208Z,71.64
2019-02-07T10:54:36.193Z,71.17
2019-02-07T10:55:36.186Z,71.92
2019-02-07T10:56:36.176Z,71.77
2019-02-07T10:57:36.166Z,71.67
2019-02-07T10:58:36.161Z,72.25
2019-02-07T10:59:36.149Z,71.30
2019-02-07T11:00:36.142Z,71.11
2019-02-07T11:01:36.135Z,71.01
2019-02-07T11:02:36.124Z,70.82
2019-02-07T11:03:36.114Z,70.54
2019-02-07T11:04:36.106Z,70.44
2019-02-07T11:05:36.098Z,71.01
2019-02-07T11:06:36.087Z,71.01
2019-02-07T11:07:36.088Z,71.01
2019-02-07T11:08:36.071Z,71.58
2019-02-07T11:09:36.065Z,71.01
2019-02-07T11:10:36.073Z,69.96
2019-02-07T11:11:36.047Z,70.25
2019-02-07T11:12:36.038Z,70.06
2019-02-07T11:13:36.030Z,69.59
2019-02-07T11:14:36.030Z,70.44
2019-02-07T11:15:36.013Z,69.96
2019-02-07T11:16:36.003Z,70.29
2019-02-07T11:17:36.000Z,69.62
2019-02-07T11:18:35.988Z,69.49
2019-02-07T11:19:35.981Z,69.68
2019-02-07T11:20:35.981Z,69.96
2019-02-07T11:21:35.964Z,70.19
2019-02-07T11:22:35.954Z,70.00
2019-02-07T11:23:35.947Z,70.00
2019-02-07T11:24:35.937Z,69.30
2019-02-07T11:25:35.929Z,69.87
2019-02-07T11:26:35.918Z,69.34
2019-02-07T11:27:35.915Z,69.49
2019-02-07T11:28:35.907Z,68.86
2019-02-07T11:29:35.896Z,68.73
2019-02-07T11:30:35.888Z,69.02
2019-02-07T11:31:35.881Z,68.67
2019-02-07T11:32:35.876Z,68.86
2019-02-07T11:33:35.866Z,68.48
2019-02-07T11:34:35.854Z,68.96
2019-02-07T11:35:35.848Z,68.58
2019-02-07T11:36:35.842Z,68.48
2019-02-07T11:37:35.835Z,68.52
2019-02-07T11:38:35.826Z,67.76
2019-02-07T11:39:35.811Z,67.85
2019-02-07T11:40:35.808Z,67.38
2019-02-07T11:41:35.807Z,67.28
2019-02-07T11:42:35.794Z,66.46
2019-02-07T11:43:35.785Z,66.27
2019-02-07T11:44:35.775Z,66.24
2019-02-07T11:45:35.769Z,66.14
2019-02-07T11:46:37.616Z,65.67
2019-02-07T11:47:35.754Z,65.76
2019-02-07T11:48:35.743Z,66.52
2019-02-07T11:49:35.737Z,66.33
2019-02-07T11:50:35.733Z,66.61
2019-02-07T11:51:35.721Z,66.24
2019-02-07T11:52:35.713Z,66.80
2019-02-07T11:53:35.707Z,66.52
2019-02-07T11:54:35.701Z,65.47
2019-02-07T11:55:35.696Z,65.86
2019-02-07T11:56:35.684Z,65.38
2019-02-07T11:57:35.675Z,65.47
2019-02-07T11:58:35.670Z,65.95
2019-02-07T11:59:35.667Z,65.95
2019-02-07T12:00:35.664Z,66.42
2019-02-07T12:01:35.648Z,65.09
2019-02-07T12:02:35.638Z,65.38
2019-02-07T12:03:35.637Z,65.00
2019-02-07T12:04:35.620Z,63.57
2019-02-07T12:05:35.617Z,64.24
2019-02-07T12:06:35.608Z,63.86
2019-02-07T12:07:35.601Z,64.05
2019-02-07T12:08:35.590Z,63.86
2019-02-07T12:09:35.587Z,63.86
2019-02-07T12:10:35.580Z,63.01
2019-02-07T12:11:35.568Z,63.57
2019-02-07T12:12:35.564Z,62.72
2019-02-07T12:13:35.553Z,63.17
2019-02-07T12:14:35.600Z,63.39
2019-02-07T12:15:35.541Z,63.57
2019-02-07T12:16:35.534Z,63.20
2019-02-07T12:17:35.524Z,63.10
2019-02-07T12:18:35.517Z,62.53
2019-02-07T12:19:35.511Z,62.91
2019-02-07T12:20:35.503Z,63.01
2019-02-07T12:21:35.497Z,62.62
2019-02-07T12:22:37.374Z,63.64
2019-02-07T12:23:35.479Z,62.78
2019-02-07T12:24:35.473Z,62.91
2019-02-07T12:25:35.467Z,63.29
2019-02-07T12:26:35.458Z,63.20
2019-02-07T12:27:35.452Z,63.73
2019-02-07T12:28:36.147Z,62.78
2019-02-07T12:29:35.439Z,63.29
2019-02-07T12:30:35.428Z,62.91
2019-02-07T12:31:35.421Z,63.45
2019-02-07T12:32:35.413Z,63.29
2019-02-07T12:33:35.406Z,63.83
2019-02-07T12:34:35.399Z,63.26
2019-02-07T12:35:35.391Z,63.29
2019-02-07T12:36:35.384Z,63.48
2019-02-07T12:37:35.376Z,63.57
2019-02-07T12:38:35.367Z,63.57
2019-02-07T12:39:35.360Z,63.35
2019-02-07T12:40:35.352Z,63.07
2019-02-07T12:41:35.344Z,63.54
2019-02-07T12:42:35.339Z,63.07
2019-02-07T12:43:35.331Z,63.83
2019-02-07T12:44:35.325Z,62.78
2019-02-07T12:45:35.315Z,62.88
2019-02-07T12:46:35.313Z,63.45
2019-02-07T12:47:35.300Z,63.26
2019-02-07T12:48:35.294Z,63.07
2019-02-07T12:49:35.285Z,63.54
2019-02-07T12:50:35.280Z,63.45
2019-02-07T12:51:35.268Z,63.92
2019-02-07T12:52:35.261Z,63.92